sensor_id;sensor_type;location;lat;lon;timestamp;pressure;altitude;pressure_sealevel;temperature;humidity
69245;BME280;56357;52.304;4.870;2023-05-24T00:00:04;102736.13;;;19.42;46.60
69245;BME280;56357;52.304;4.870;2023-05-24T00:02:33;102724.91;;;19.42;46.59
69245;BME280;56357;52.304;4.870;2023-05-24T00:05:02;102729.19;;;19.33;46.92
69245;BME280;56357;52.304;4.870;2023-05-24T00:07:29;102722.84;;;19.38;46.92
69245;BME280;56357;52.304;4.870;2023-05-24T00:09:55;102727.84;;;19.36;46.83
69245;BME280;56357;52.304;4.870;2023-05-24T00:12:22;102728.09;;;19.34;46.99
69245;BME280;56357;52.304;4.870;2023-05-24T00:14:48;102727.47;;;19.32;47.07
69245;BME280;56357;52.304;4.870;2023-05-24T00:17:15;102727.69;;;19.31;47.07
69245;BME280;56357;52.304;4.870;2023-05-24T00:19:41;102729.41;;;19.32;47.06
69245;BME280;56357;52.304;4.870;2023-05-24T00:22:08;102728.78;;;19.30;46.94
69245;BME280;56357;52.304;4.870;2023-05-24T00:24:35;102736.13;;;19.31;46.74
69245;BME280;56357;52.304;4.870;2023-05-24T00:27:02;102736.34;;;19.29;47.19
69245;BME280;56357;52.304;4.870;2023-05-24T00:29:29;102731.69;;;19.23;47.19
69245;BME280;56357;52.304;4.870;2023-05-24T00:31:55;102725.97;;;19.18;47.37
69245;BME280;56357;52.304;4.870;2023-05-24T00:34:22;102716.69;;;19.17;47.23
69245;BME280;56357;52.304;4.870;2023-05-24T00:36:48;102727.06;;;19.17;47.38
69245;BME280;56357;52.304;4.870;2023-05-24T00:39:15;102727.78;;;19.12;47.23
69245;BME280;56357;52.304;4.870;2023-05-24T00:41:42;102732.09;;;19.15;47.44
69245;BME280;56357;52.304;4.870;2023-05-24T00:44:08;102726.47;;;19.15;47.39
69245;BME280;56357;52.304;4.870;2023-05-24T00:46:35;102732.09;;;19.15;47.12
69245;BME280;56357;52.304;4.870;2023-05-24T00:49:02;102725.84;;;19.13;47.61
69245;BME280;56357;52.304;4.870;2023-05-24T00:51:29;102721.56;;;19.10;47.33
69245;BME280;56357;52.304;4.870;2023-05-24T00:53:56;102723.75;;;19.08;47.49
69245;BME280;56357;52.304;4.870;2023-05-24T00:56:23;102716.81;;;19.11;47.42
69245;BME280;56357;52.304;4.870;2023-05-24T00:58:51;102718.38;;;19.07;47.42
69245;BME280;56357;52.304;4.870;2023-05-24T01:01:19;102710.22;;;19.05;47.53
69245;BME280;56357;52.304;4.870;2023-05-24T01:03:45;102717.16;;;19.03;47.27
69245;BME280;56357;52.304;4.870;2023-05-24T01:06:12;102725.94;;;19.06;47.46
69245;BME280;56357;52.304;4.870;2023-05-24T01:08:53;102727.28;;;19.04;47.58
69245;BME280;56357;52.304;4.870;2023-05-24T01:14:17;102731.53;;;18.95;47.86
69245;BME280;56357;52.304;4.870;2023-05-24T01:19:51;102724.44;;;18.92;47.79
69245;BME280;56357;52.304;4.870;2023-05-24T01:27:31;102721.91;;;18.91;47.99
69245;BME280;56357;52.304;4.870;2023-05-24T01:29:59;102711.41;;;18.86;47.79
69245;BME280;56357;52.304;4.870;2023-05-24T01:32:26;102729.56;;;18.84;47.89
69245;BME280;56357;52.304;4.870;2023-05-24T01:34:53;102720.53;;;18.82;47.71
69245;BME280;56357;52.304;4.870;2023-05-24T01:37:20;102712.97;;;18.82;47.96
69245;BME280;56357;52.304;4.870;2023-05-24T01:39:47;102708.19;;;18.83;47.95
69245;BME280;56357;52.304;4.870;2023-05-24T01:50:05;102716.13;;;18.74;48.15
69245;BME280;56357;52.304;4.870;2023-05-24T01:52:33;102721.63;;;18.81;47.80
69245;BME280;56357;52.304;4.870;2023-05-24T01:55:02;102703.19;;;18.73;48.03
69245;BME280;56357;52.304;4.870;2023-05-24T01:57:31;102714.41;;;18.73;48.10
69245;BME280;56357;52.304;4.870;2023-05-24T02:00:01;102707.34;;;18.71;47.96
69245;BME280;56357;52.304;4.870;2023-05-24T02:02:28;102699.75;;;18.71;48.16
69245;BME280;56357;52.304;4.870;2023-05-24T02:04:54;102701.72;;;18.71;48.16
69245;BME280;56357;52.304;4.870;2023-05-24T02:07:21;102694.38;;;18.70;48.01
69245;BME280;56357;52.304;4.870;2023-05-24T02:09:47;102698.06;;;18.70;48.09
69245;BME280;56357;52.304;4.870;2023-05-24T02:12:14;102696.56;;;18.68;48.22
69245;BME280;56357;52.304;4.870;2023-05-24T02:14:40;102687.41;;;18.61;48.10
69245;BME280;56357;52.304;4.870;2023-05-24T02:17:07;102700.00;;;18.70;48.07
69245;BME280;56357;52.304;4.870;2023-05-24T02:19:34;102695.34;;;18.64;47.93
69245;BME280;56357;52.304;4.870;2023-05-24T02:22:01;102695.34;;;18.64;48.31
69245;BME280;56357;52.304;4.870;2023-05-24T02:24:27;102691.22;;;18.66;48.09
69245;BME280;56357;52.304;4.870;2023-05-24T02:26:54;102688.66;;;18.65;48.48
69245;BME280;56357;52.304;4.870;2023-05-24T02:29:21;102691.31;;;18.60;48.36
69245;BME280;56357;52.304;4.870;2023-05-24T02:31:48;102694.72;;;18.62;48.26
69245;BME280;56357;52.304;4.870;2023-05-24T02:34:20;102693.50;;;18.58;48.08
69245;BME280;56357;52.304;4.870;2023-05-24T02:36:47;102687.03;;;18.57;47.94
69245;BME280;56357;52.304;4.870;2023-05-24T02:39:13;102693.63;;;18.51;48.07
69245;BME280;56357;52.304;4.870;2023-05-24T02:41:40;102692.28;;;18.54;48.02
69245;BME280;56357;52.304;4.870;2023-05-24T02:44:06;102695.31;;;18.52;48.34
69245;BME280;56357;52.304;4.870;2023-05-24T02:46:33;102693.84;;;18.50;48.19
69245;BME280;56357;52.304;4.870;2023-05-24T02:48:59;102704.47;;;18.48;48.57
69245;BME280;56357;52.304;4.870;2023-05-24T02:51:26;102700.78;;;18.47;48.42
69245;BME280;56357;52.304;4.870;2023-05-24T02:53:53;102701.16;;;18.51;48.04
69245;BME280;56357;52.304;4.870;2023-05-24T02:56:19;102705.69;;;18.52;48.12
69245;BME280;56357;52.304;4.870;2023-05-24T02:58:46;102704.47;;;18.48;48.55
69245;BME280;56357;52.304;4.870;2023-05-24T03:01:12;102704.69;;;18.46;48.30
69245;BME280;56357;52.304;4.870;2023-05-24T03:03:39;102702.56;;;18.42;48.37
69245;BME280;56357;52.304;4.870;2023-05-24T03:06:06;102697.41;;;18.39;48.28
69245;BME280;56357;52.304;4.870;2023-05-24T03:08:33;102697.63;;;18.44;48.33
69245;BME280;56357;52.304;4.870;2023-05-24T03:11:01;102686.81;;;18.41;48.34
69245;BME280;56357;52.304;4.870;2023-05-24T03:13:28;102688.19;;;18.38;48.33
69245;BME280;56357;52.304;4.870;2023-05-24T03:15:54;102688.88;;;18.34;48.58
69245;BME280;56357;52.304;4.870;2023-05-24T03:18:21;102685.59;;;18.37;48.51
69245;BME280;56357;52.304;4.870;2023-05-24T03:20:47;102683.88;;;18.36;48.57
69245;BME280;56357;52.304;4.870;2023-05-24T03:23:14;102677.91;;;18.32;48.58
69245;BME280;56357;52.304;4.870;2023-05-24T03:25:40;102677.66;;;18.34;48.54
69245;BME280;56357;52.304;4.870;2023-05-24T03:28:07;102678.28;;;18.36;48.66
69245;BME280;56357;52.304;4.870;2023-05-24T03:30:34;102670.81;;;18.29;48.58
69245;BME280;56357;52.304;4.870;2023-05-24T03:33:00;102690.34;;;18.36;48.18
69245;BME280;56357;52.304;4.870;2023-05-24T03:35:26;102693.63;;;18.33;48.41
69245;BME280;56357;52.304;4.870;2023-05-24T03:37:53;102691.31;;;18.30;48.57
69245;BME280;56357;52.304;4.870;2023-05-24T03:40:19;102710.22;;;18.35;48.42
69245;BME280;56357;52.304;4.870;2023-05-24T03:42:46;102703.72;;;18.22;48.54
69245;BME280;56357;52.304;4.870;2023-05-24T03:45:12;102705.41;;;18.23;48.96
69245;BME280;56357;52.304;4.870;2023-05-24T03:47:38;102697.38;;;18.27;48.40
69245;BME280;56357;52.304;4.870;2023-05-24T03:50:05;102696.06;;;18.29;48.77
69245;BME280;56357;52.304;4.870;2023-05-24T03:52:32;102701.03;;;18.27;48.50
69245;BME280;56357;52.304;4.870;2023-05-24T03:54:58;102697.38;;;18.27;48.89
69245;BME280;56357;52.304;4.870;2023-05-24T03:57:25;102702.16;;;18.26;48.60
69245;BME280;56357;52.304;4.870;2023-05-24T03:59:51;102700.53;;;18.19;48.93
69245;BME280;56357;52.304;4.870;2023-05-24T04:02:17;102701.97;;;18.21;49.02
69245;BME280;56357;52.304;4.870;2023-05-24T04:04:44;102700.03;;;18.22;48.74
69245;BME280;56357;52.304;4.870;2023-05-24T04:07:10;102699.97;;;18.28;48.59
69245;BME280;56357;52.304;4.870;2023-05-24T04:09:38;102699.81;;;18.23;48.70
69245;BME280;56357;52.304;4.870;2023-05-24T04:12:05;102696.88;;;18.18;48.76
69245;BME280;56357;52.304;4.870;2023-05-24T04:14:31;102692.50;;;18.22;48.99
69245;BME280;56357;52.304;4.870;2023-05-24T04:16:58;102694.81;;;18.25;48.77
69245;BME280;56357;52.304;4.870;2023-05-24T04:19:26;102695.31;;;18.22;48.73
69245;BME280;56357;52.304;4.870;2023-05-24T04:21:53;102695.75;;;18.19;48.96
69245;BME280;56357;52.304;4.870;2023-05-24T04:24:19;102682.34;;;18.21;49.18
69245;BME280;56357;52.304;4.870;2023-05-24T04:26:46;102695.75;;;18.19;49.13
69245;BME280;56357;52.304;4.870;2023-05-24T04:29:12;102687.34;;;18.19;48.97
69245;BME280;56357;52.304;4.870;2023-05-24T04:31:40;102697.09;;;18.17;49.25
69245;BME280;56357;52.304;4.870;2023-05-24T04:34:09;102693.81;;;18.20;49.22
69245;BME280;56357;52.304;4.870;2023-05-24T04:36:38;102694.44;;;18.22;48.64
69245;BME280;56357;52.304;4.870;2023-05-24T04:39:05;102693.13;;;18.24;49.34
69245;BME280;56357;52.304;4.870;2023-05-24T04:41:32;102686.25;;;18.20;49.09
69245;BME280;56357;52.304;4.870;2023-05-24T04:44:00;102681.91;;;18.24;49.20
69245;BME280;56357;52.304;4.870;2023-05-24T04:46:26;102686.56;;;18.31;49.14
69245;BME280;56357;52.304;4.870;2023-05-24T04:48:53;102676.78;;;18.33;49.35
69245;BME280;56357;52.304;4.870;2023-05-24T04:51:21;102685.44;;;18.50;49.26
69245;BME280;56357;52.304;4.870;2023-05-24T04:53:47;102682.38;;;18.51;48.76
69245;BME280;56357;52.304;4.870;2023-05-24T04:56:14;102672.66;;;18.36;49.32
69245;BME280;56357;52.304;4.870;2023-05-24T04:58:41;102683.88;;;18.36;49.43
69245;BME280;56357;52.304;4.870;2023-05-24T05:01:08;102690.72;;;18.40;49.41
69245;BME280;56357;52.304;4.870;2023-05-24T05:03:34;102687.31;;;18.38;49.44
69245;BME280;56357;52.304;4.870;2023-05-24T05:06:01;102689.63;;;18.41;49.39
69245;BME280;56357;52.304;4.870;2023-05-24T05:08:27;102684.66;;;18.43;49.46
69245;BME280;56357;52.304;4.870;2023-05-24T05:10:55;102693.69;;;18.45;49.45
69245;BME280;56357;52.304;4.870;2023-05-24T05:13:21;102688.47;;;18.48;49.79
69245;BME280;56357;52.304;4.870;2023-05-24T05:15:48;102697.50;;;18.50;49.37
69245;BME280;56357;52.304;4.870;2023-05-24T05:18:14;102697.75;;;18.49;49.83
69245;BME280;56357;52.304;4.870;2023-05-24T05:20:41;102700.09;;;18.52;49.88
69245;BME280;56357;52.304;4.870;2023-05-24T05:23:07;102711.69;;;18.55;49.71
69245;BME280;56357;52.304;4.870;2023-05-24T05:25:34;102705.44;;;18.53;49.95
69245;BME280;56357;52.304;4.870;2023-05-24T05:28:00;102710.00;;;18.66;50.07
69245;BME280;56357;52.304;4.870;2023-05-24T05:30:27;102706.19;;;18.60;50.54
69245;BME280;56357;52.304;4.870;2023-05-24T05:32:53;102709.00;;;18.60;51.23
69245;BME280;56357;52.304;4.870;2023-05-24T05:35:19;102712.59;;;18.79;51.33
69245;BME280;56357;52.304;4.870;2023-05-24T05:37:46;102711.25;;;18.81;51.83
69245;BME280;56357;52.304;4.870;2023-05-24T05:40:12;102706.41;;;19.11;51.70
69245;BME280;56357;52.304;4.870;2023-05-24T05:42:39;102710.28;;;18.87;51.11
69245;BME280;56357;52.304;4.870;2023-05-24T05:45:06;102718.19;;;18.79;51.26
69245;BME280;56357;52.304;4.870;2023-05-24T05:47:32;102720.41;;;18.88;50.66
69245;BME280;56357;52.304;4.870;2023-05-24T05:49:59;102716.78;;;18.88;51.17
69245;BME280;56357;52.304;4.870;2023-05-24T05:52:25;102719.97;;;19.03;50.94
69245;BME280;56357;52.304;4.870;2023-05-24T05:54:52;102717.03;;;19.09;50.26
69245;BME280;56357;52.304;4.870;2023-05-24T05:57:18;102716.03;;;19.04;50.70
69245;BME280;56357;52.304;4.870;2023-05-24T05:59:48;102706.53;;;19.05;50.71
69245;BME280;56357;52.304;4.870;2023-05-24T06:02:15;102715.34;;;19.08;50.76
69245;BME280;56357;52.304;4.870;2023-05-24T06:04:43;102719.25;;;19.07;50.57
69245;BME280;56357;52.304;4.870;2023-05-24T06:07:10;102710.22;;;19.17;50.53
69245;BME280;56357;52.304;4.870;2023-05-24T06:09:37;102708.50;;;19.16;50.39
69245;BME280;56357;52.304;4.870;2023-05-24T06:12:04;102710.34;;;19.10;50.74
69245;BME280;56357;52.304;4.870;2023-05-24T06:14:31;102706.81;;;19.15;50.76
69245;BME280;56357;52.304;4.870;2023-05-24T06:16:58;102713.53;;;19.37;50.07
69245;BME280;56357;52.304;4.870;2023-05-24T06:19:24;102725.41;;;19.39;49.87
69245;BME280;56357;52.304;4.870;2023-05-24T06:21:52;102713.78;;;19.36;50.32
69245;BME280;56357;52.304;4.870;2023-05-24T06:24:18;102721.97;;;19.37;50.32
69245;BME280;56357;52.304;4.870;2023-05-24T06:26:46;102723.91;;;19.48;49.91
69245;BME280;56357;52.304;4.870;2023-05-24T06:29:13;102718.78;;;19.57;50.09
69245;BME280;56357;52.304;4.870;2023-05-24T06:31:39;102723.81;;;19.55;49.63
69245;BME280;56357;52.304;4.870;2023-05-24T06:34:07;102721.72;;;19.50;49.59
69245;BME280;56357;52.304;4.870;2023-05-24T06:36:34;102725.91;;;19.48;49.81
69245;BME280;56357;52.304;4.870;2023-05-24T06:39:07;102716.59;;;19.47;49.43
69245;BME280;56357;52.304;4.870;2023-05-24T06:41:34;102717.31;;;19.43;49.69
69245;BME280;56357;52.304;4.870;2023-05-24T06:44:01;102709.25;;;19.46;49.68
69245;BME280;56357;52.304;4.870;2023-05-24T06:46:28;102714.66;;;19.48;49.60
69245;BME280;56357;52.304;4.870;2023-05-24T06:48:55;102709.25;;;19.58;49.63
69245;BME280;56357;52.304;4.870;2023-05-24T06:51:22;102718.69;;;19.52;50.00
69245;BME280;56357;52.304;4.870;2023-05-24T06:53:49;102711.09;;;19.64;50.24
69245;BME280;56357;52.304;4.870;2023-05-24T06:56:16;102711.44;;;19.67;50.36
69245;BME280;56357;52.304;4.870;2023-05-24T06:58:43;102722.22;;;19.70;50.15
69245;BME280;56357;52.304;4.870;2023-05-24T07:01:10;102711.53;;;19.84;49.80
69245;BME280;56357;52.304;4.870;2023-05-24T07:03:36;102723.44;;;19.74;49.87
69245;BME280;56357;52.304;4.870;2023-05-24T07:06:03;102719.03;;;19.78;49.83
69245;BME280;56357;52.304;4.870;2023-05-24T07:08:29;102717.91;;;19.79;49.79
69245;BME280;56357;52.304;4.870;2023-05-24T07:10:59;102724.50;;;19.73;50.21
69245;BME280;56357;52.304;4.870;2023-05-24T07:13:26;102723.75;;;19.89;49.13
69245;BME280;56357;52.304;4.870;2023-05-24T07:15:52;102722.03;;;19.88;49.62
69245;BME280;56357;52.304;4.870;2023-05-24T07:18:19;102732.31;;;19.83;49.46
69245;BME280;56357;52.304;4.870;2023-05-24T07:20:46;102733.41;;;19.93;49.68
69245;BME280;56357;52.304;4.870;2023-05-24T07:23:12;102733.25;;;20.00;49.21
69245;BME280;56357;52.304;4.870;2023-05-24T07:25:39;102734.03;;;19.95;49.33
69245;BME280;56357;52.304;4.870;2023-05-24T07:28:06;102721.66;;;19.96;49.29
69245;BME280;56357;52.304;4.870;2023-05-24T07:30:33;102723.06;;;19.82;48.98
69245;BME280;56357;52.304;4.870;2023-05-24T07:32:59;102729.00;;;19.97;49.34
69245;BME280;56357;52.304;4.870;2023-05-24T07:35:27;102727.28;;;19.96;49.10
69245;BME280;56357;52.304;4.870;2023-05-24T07:37:55;102733.63;;;20.03;48.60
69245;BME280;56357;52.304;4.870;2023-05-24T07:40:22;102726.94;;;19.93;49.01
69245;BME280;56357;52.304;4.870;2023-05-24T07:42:48;102733.25;;;20.00;48.71
69245;BME280;56357;52.304;4.870;2023-05-24T07:45:15;102718.47;;;20.04;48.11
69245;BME280;56357;52.304;4.870;2023-05-24T07:47:41;102733.41;;;19.93;48.66
69245;BME280;56357;52.304;4.870;2023-05-24T07:50:08;102722.25;;;19.98;48.40
69245;BME280;56357;52.304;4.870;2023-05-24T07:52:35;102723.13;;;19.99;48.48
69245;BME280;56357;52.304;4.870;2023-05-24T07:55:03;102727.25;;;20.08;48.40
69245;BME280;56357;52.304;4.870;2023-05-24T07:57:30;102731.31;;;20.00;48.21
69245;BME280;56357;52.304;4.870;2023-05-24T07:59:57;102726.91;;;20.04;48.20
69245;BME280;56357;52.304;4.870;2023-05-24T08:02:23;102729.44;;;20.06;48.21
69245;BME280;56357;52.304;4.870;2023-05-24T08:04:50;102727.38;;;20.13;47.80
69245;BME280;56357;52.304;4.870;2023-05-24T08:07:17;102722.22;;;20.10;47.65
69245;BME280;56357;52.304;4.870;2023-05-24T08:09:45;102734.00;;;20.07;47.81
69245;BME280;56357;52.304;4.870;2023-05-24T08:12:11;102730.31;;;20.06;48.09
69245;BME280;56357;52.304;4.870;2023-05-24T08:14:38;102725.69;;;20.00;47.93
69245;BME280;56357;52.304;4.870;2023-05-24T08:17:04;102720.75;;;20.07;48.29
69245;BME280;56357;52.304;4.870;2023-05-24T08:19:31;102720.19;;;20.05;48.00
69245;BME280;56357;52.304;4.870;2023-05-24T08:22:00;102716.53;;;19.93;47.53
69245;BME280;56357;52.304;4.870;2023-05-24T08:24:29;102724.47;;;19.96;47.76
69245;BME280;56357;52.304;4.870;2023-05-24T08:26:56;102713.81;;;19.98;47.44
69245;BME280;56357;52.304;4.870;2023-05-24T08:29:23;102715.78;;;19.98;46.98
69245;BME280;56357;52.304;4.870;2023-05-24T08:31:49;102725.59;;;19.95;47.11
69245;BME280;56357;52.304;4.870;2023-05-24T08:34:16;102724.22;;;19.98;46.92
69245;BME280;56357;52.304;4.870;2023-05-24T08:36:42;102731.19;;;20.07;47.50
69245;BME280;56357;52.304;4.870;2023-05-24T08:39:09;102724.44;;;20.08;46.84
69245;BME280;56357;52.304;4.870;2023-05-24T08:41:36;102725.31;;;20.08;47.12
69245;BME280;56357;52.304;4.870;2023-05-24T08:44:06;102723.56;;;20.07;47.30
69245;BME280;56357;52.304;4.870;2023-05-24T08:46:34;102716.94;;;20.14;46.53
69245;BME280;56357;52.304;4.870;2023-05-24T08:49:01;102729.16;;;20.31;47.30
69245;BME280;56357;52.304;4.870;2023-05-24T08:51:29;102728.19;;;20.25;47.44
69245;BME280;56357;52.304;4.870;2023-05-24T08:53:59;102727.59;;;20.23;46.07
69245;BME280;56357;52.304;4.870;2023-05-24T08:56:26;102730.56;;;20.05;46.14
69245;BME280;56357;52.304;4.870;2023-05-24T08:58:54;102733.03;;;20.01;45.78
69245;BME280;56357;52.304;4.870;2023-05-24T09:01:22;102726.16;;;20.09;46.17
69245;BME280;56357;52.304;4.870;2023-05-24T09:03:50;102727.72;;;20.17;45.84
69245;BME280;56357;52.304;4.870;2023-05-24T09:06:18;102727.25;;;20.08;45.99
69245;BME280;56357;52.304;4.870;2023-05-24T09:08:45;102725.75;;;20.17;45.99
69245;BME280;56357;52.304;4.870;2023-05-24T09:11:17;102727.72;;;20.17;45.97
69245;BME280;56357;52.304;4.870;2023-05-24T09:13:44;102724.56;;;20.25;45.66
69245;BME280;56357;52.304;4.870;2023-05-24T09:16:11;102720.94;;;20.41;45.24
69245;BME280;56357;52.304;4.870;2023-05-24T09:18:39;102731.38;;;20.29;45.72
69245;BME280;56357;52.304;4.870;2023-05-24T09:21:06;102723.78;;;20.29;45.20
69245;BME280;56357;52.304;4.870;2023-05-24T09:23:34;102711.56;;;20.24;45.50
69245;BME280;56357;52.304;4.870;2023-05-24T09:26:06;102723.53;;;20.31;45.37
69245;BME280;56357;52.304;4.870;2023-05-24T09:28:33;102719.22;;;20.40;45.03
69245;BME280;56357;52.304;4.870;2023-05-24T09:31:01;102713.44;;;20.46;45.82
69245;BME280;56357;52.304;4.870;2023-05-24T09:33:32;102714.94;;;20.37;44.94
69245;BME280;56357;52.304;4.870;2023-05-24T09:36:03;102710.28;;;20.43;45.46
69245;BME280;56357;52.304;4.870;2023-05-24T09:38:30;102698.31;;;20.36;45.20
69245;BME280;56357;52.304;4.870;2023-05-24T09:41:04;102708.47;;;20.37;45.05
69245;BME280;56357;52.304;4.870;2023-05-24T09:43:33;102709.66;;;20.41;44.90
69245;BME280;56357;52.304;4.870;2023-05-24T09:46:03;102706.53;;;20.54;44.70
69245;BME280;56357;52.304;4.870;2023-05-24T09:48:30;102715.63;;;20.44;45.21
69245;BME280;56357;52.304;4.870;2023-05-24T09:51:07;102709.78;;;20.46;45.26
69245;BME280;56357;52.304;4.870;2023-05-24T09:53:35;102706.13;;;20.62;45.07
69245;BME280;56357;52.304;4.870;2023-05-24T09:56:05;102700.25;;;20.63;45.19
69245;BME280;56357;52.304;4.870;2023-05-24T09:58:32;102705.44;;;20.55;44.65
69245;BME280;56357;52.304;4.870;2023-05-24T10:01:03;102708.00;;;20.56;45.30
69245;BME280;56357;52.304;4.870;2023-05-24T10:03:31;102705.13;;;20.68;44.55
69245;BME280;56357;52.304;4.870;2023-05-24T10:05:58;102709.06;;;20.67;44.46
69245;BME280;56357;52.304;4.870;2023-05-24T10:08:24;102707.94;;;20.68;44.37
69245;BME280;56357;52.304;4.870;2023-05-24T10:10:52;102706.66;;;20.59;44.30
69245;BME280;56357;52.304;4.870;2023-05-24T10:13:21;102708.25;;;20.55;44.62
69245;BME280;56357;52.304;4.870;2023-05-24T10:15:48;102707.06;;;20.51;44.61
69245;BME280;56357;52.304;4.870;2023-05-24T10:18:14;102707.25;;;20.61;44.57
69245;BME280;56357;52.304;4.870;2023-05-24T10:20:42;102702.84;;;20.65;44.49
69245;BME280;56357;52.304;4.870;2023-05-24T10:23:09;102707.25;;;20.61;44.76
69245;BME280;56357;52.304;4.870;2023-05-24T10:25:44;102699.84;;;20.71;44.28
69245;BME280;56357;52.304;4.870;2023-05-24T10:28:13;102704.19;;;20.79;44.27
69245;BME280;56357;52.304;4.870;2023-05-24T10:33:21;102710.44;;;20.81;44.81
69245;BME280;56357;52.304;4.870;2023-05-24T10:35:50;102712.97;;;20.82;44.27
69245;BME280;56357;52.304;4.870;2023-05-24T10:38:19;102714.63;;;20.78;44.52
69245;BME280;56357;52.304;4.870;2023-05-24T10:40:47;102715.47;;;20.79;44.58
69245;BME280;56357;52.304;4.870;2023-05-24T10:43:15;102721.00;;;20.74;44.01
69245;BME280;56357;52.304;4.870;2023-05-24T10:45:47;102706.84;;;20.69;44.14
69245;BME280;56357;52.304;4.870;2023-05-24T10:50:41;102720.00;;;20.80;44.37
69245;BME280;56357;52.304;4.870;2023-05-24T10:53:16;102723.56;;;20.92;44.59
69245;BME280;56357;52.304;4.870;2023-05-24T10:55:56;102710.97;;;20.94;44.45
69245;BME280;56357;52.304;4.870;2023-05-24T10:58:42;102721.81;;;20.86;45.08
69245;BME280;56357;52.304;4.870;2023-05-24T11:01:24;102710.63;;;20.91;44.05
69245;BME280;56357;52.304;4.870;2023-05-24T11:03:52;102715.13;;;20.92;45.67
69245;BME280;56357;52.304;4.870;2023-05-24T11:06:18;102712.31;;;20.92;44.66
69245;BME280;56357;52.304;4.870;2023-05-24T11:08:45;102699.44;;;20.96;45.18
69245;BME280;56357;52.304;4.870;2023-05-24T11:11:12;102699.03;;;21.04;44.86
69245;BME280;56357;52.304;4.870;2023-05-24T11:13:40;102705.94;;;21.13;44.51
69245;BME280;56357;52.304;4.870;2023-05-24T11:16:08;102712.28;;;21.20;44.00
69245;BME280;56357;52.304;4.870;2023-05-24T11:18:35;102708.34;;;21.05;43.94
69245;BME280;56357;52.304;4.870;2023-05-24T11:21:04;102712.88;;;21.06;43.87
69245;BME280;56357;52.304;4.870;2023-05-24T11:23:32;102706.66;;;21.20;44.77
69245;BME280;56357;52.304;4.870;2023-05-24T11:25:58;102708.00;;;21.18;44.44
69245;BME280;56357;52.304;4.870;2023-05-24T11:28:25;102708.19;;;21.11;44.15
69245;BME280;56357;52.304;4.870;2023-05-24T11:30:52;102709.34;;;21.15;45.09
69245;BME280;56357;52.304;4.870;2023-05-24T11:33:20;102707.84;;;21.24;44.97
69245;BME280;56357;52.304;4.870;2023-05-24T11:35:49;102701.69;;;21.27;44.82
69245;BME280;56357;52.304;4.870;2023-05-24T11:38:16;102713.16;;;21.21;45.06
69245;BME280;56357;52.304;4.870;2023-05-24T11:40:45;102706.31;;;21.17;45.45
69245;BME280;56357;52.304;4.870;2023-05-24T11:43:17;102701.50;;;21.17;45.87
69245;BME280;56357;52.304;4.870;2023-05-24T11:45:45;102711.25;;;21.26;46.61
69245;BME280;56357;52.304;4.870;2023-05-24T11:48:14;102710.84;;;21.34;47.43
69245;BME280;56357;52.304;4.870;2023-05-24T11:50:43;102705.31;;;21.44;46.11
69245;BME280;56357;52.304;4.870;2023-05-24T11:53:10;102707.53;;;21.42;47.25
69245;BME280;56357;52.304;4.870;2023-05-24T11:55:38;102706.34;;;21.38;46.35
69245;BME280;56357;52.304;4.870;2023-05-24T11:58:30;102707.31;;;21.44;46.49
69245;BME280;56357;52.304;4.870;2023-05-24T12:01:02;102703.47;;;21.33;46.48
69245;BME280;56357;52.304;4.870;2023-05-24T12:03:28;102706.78;;;21.47;47.05
69245;BME280;56357;52.304;4.870;2023-05-24T12:05:56;102709.94;;;21.50;46.19
69245;BME280;56357;52.304;4.870;2023-05-24T12:08:23;102701.47;;;21.50;46.06
69245;BME280;56357;52.304;4.870;2023-05-24T12:10:49;102709.28;;;21.43;46.34
69245;BME280;56357;52.304;4.870;2023-05-24T12:13:20;102706.94;;;21.40;46.28
69245;BME280;56357;52.304;4.870;2023-05-24T12:15:49;102708.84;;;21.35;46.25
69245;BME280;56357;52.304;4.870;2023-05-24T12:18:20;102702.72;;;21.38;46.46
69245;BME280;56357;52.304;4.870;2023-05-24T12:20:48;102716.38;;;21.29;46.65
69245;BME280;56357;52.304;4.870;2023-05-24T12:23:20;102715.88;;;21.32;46.97
69245;BME280;56357;52.304;4.870;2023-05-24T12:25:48;102714.75;;;21.33;46.75
69245;BME280;56357;52.304;4.870;2023-05-24T12:28:18;102719.84;;;21.36;46.34
69245;BME280;56357;52.304;4.870;2023-05-24T12:30:48;102718.75;;;21.37;46.82
69245;BME280;56357;52.304;4.870;2023-05-24T12:33:17;102719.28;;;21.34;46.70
69245;BME280;56357;52.304;4.870;2023-05-24T12:35:44;102719.53;;;21.33;46.81
69245;BME280;56357;52.304;4.870;2023-05-24T12:38:11;102710.31;;;21.37;46.61
69245;BME280;56357;52.304;4.870;2023-05-24T12:40:40;102702.00;;;21.47;46.31
69245;BME280;56357;52.304;4.870;2023-05-24T12:43:08;102709.56;;;21.63;47.23
69245;BME280;56357;52.304;4.870;2023-05-24T12:45:34;102708.63;;;21.58;45.96
69245;BME280;56357;52.304;4.870;2023-05-24T12:48:01;102711.34;;;21.86;46.92
69245;BME280;56357;52.304;4.870;2023-05-24T12:50:29;102708.78;;;21.68;45.86
69245;BME280;56357;52.304;4.870;2023-05-24T12:52:56;102706.53;;;21.87;46.06
69245;BME280;56357;52.304;4.870;2023-05-24T12:55:24;102706.88;;;21.73;45.82
69245;BME280;56357;52.304;4.870;2023-05-24T12:57:54;102708.63;;;21.74;46.34
69245;BME280;56357;52.304;4.870;2023-05-24T13:00:24;102719.75;;;21.64;46.42
69245;BME280;56357;52.304;4.870;2023-05-24T13:02:52;102714.88;;;21.60;45.58
69245;BME280;56357;52.304;4.870;2023-05-24T13:05:21;102713.50;;;21.62;45.84
69245;BME280;56357;52.304;4.870;2023-05-24T13:07:49;102711.19;;;21.59;45.76
69245;BME280;56357;52.304;4.870;2023-05-24T13:10:15;102722.56;;;21.64;46.57
69245;BME280;56357;52.304;4.870;2023-05-24T13:12:43;102719.75;;;21.64;45.82
69245;BME280;56357;52.304;4.870;2023-05-24T13:15:10;102713.56;;;21.67;45.68